Time;durP1;ratioP1;P1;durP2;ratioP2;P2;SDS_P1;SDS_P2;PMS_P1;PMS_P2;Temp;Humidity;BMP_temperature;BMP_pressure;BME280_temperature;BME280_humidity;BME280_pressure;Samples;Min_cycle;Max_cycle;Signal;HPM_P1;HPM_P2
2022/05/15 00:20:37;;;;;;;;;10.50;8.00;;;;;19.35;39.86;101384.25;5561661;22;46779;-87
2022/05/15 00:34:37;;;;;;;;;;;;;;;;;;;;;
2022/05/15 00:37:46;;;;;;;;;;;;;;;;;;;;;
2022/05/15 00:51:20;;;;;;;;;;;;;;;;;;;;;
2022/05/15 00:58:08;;;;;;;;;;;;;;;;;;;;;
2022/05/15 01:01:36;;;;;;;;;8.00;7.00;;;;;19.07;41.08;101350.38;4807228;29;68705;-86
2022/05/15 01:08:43;;;;;;;;;;;;;;;;;;;;;
2022/05/15 01:15:24;;;;;;;;;;;;;;;;;;;;;
2022/05/15 01:24:55;;;;;;;;;;;;;;;;;;;;;
2022/05/15 01:35:01;;;;;;;;;;;;;;;;;;;;;
2022/05/15 01:41:12;;;;;;;;;;;;;;;;;;;;;
2022/05/15 01:43:53;;;;;;;;;5.25;5.25;;;;;18.91;42.44;101331.25;4831387;29;70905;-87
2022/05/15 01:46:59;;;;;;;;;;;;;;;;;;;;;
2022/05/15 01:50:01;;;;;;;;;;;;;;;;;;;;;
2022/05/15 01:53:02;;;;;;;;;10.00;9.50;;;;;18.87;42.58;101326.94;4864761;29;66345;-86
2022/05/15 01:59:22;;;;;;;;;9.00;9.00;;;;;18.85;43.28;101317.22;4827800;29;47066;-86
2022/05/15 02:02:03;;;;;;;;;;;;;;;;;;;;;
2022/05/15 02:08:30;;;;;;;;;;;;;;;;;;;;;
2022/05/15 02:14:26;;;;;;;;;;;;;;;;;;;;;
2022/05/15 02:19:54;;;;;;;;;6.50;5.25;;;;;18.58;43.65;101281.50;4878165;28;45863;-85
2022/05/15 02:22:53;;;;;;;;;;;;;;;;;;;;;
2022/05/15 02:29:25;;;;;;;;;7.00;6.00;;;;;18.49;44.01;101280.84;4963104;28;45543;-85
2022/05/15 02:32:29;;;;;;;;;6.75;6.00;;;;;18.41;44.21;101276.63;4960457;28;45515;-85
2022/05/15 02:34:59;;;;;;;;;7.25;7.00;;;;;18.43;44.19;101285.47;4990811;28;45388;-85
2022/05/15 02:44:56;;;;;;;;;;;;;;;;;;;;;
2022/05/15 02:54:05;;;;;;;;;;;;;;;;;;;;;
2022/05/15 02:57:02;;;;;;;;;;;;;;;;;;;;;
2022/05/15 02:59:57;;;;;;;;;;;;;;;;;;;;;
2022/05/15 03:02:49;;;;;;;;;;;;;;;;;;;;;
2022/05/15 03:06:01;;;;;;;;;6.75;6.50;;;;;18.34;44.74;101296.41;5001782;28;67907;-85
2022/05/15 03:11:33;;;;;;;;;7.50;7.50;;;;;18.31;45.09;101284.03;4987212;28;45352;-85
2022/05/15 03:14:12;;;;;;;;;7.00;5.75;;;;;18.33;44.87;101281.31;4983811;28;45458;-84
2022/05/15 03:17:19;;;;;;;;;;;;;;;;;;;;;
2022/05/15 03:19:56;;;;;;;;;4.00;4.00;;;;;18.29;45.12;101273.41;4996371;28;72902;-85
2022/05/15 03:22:33;;;;;;;;;10.00;9.00;;;;;18.32;44.96;101279.56;4976177;28;47880;-85
2022/05/15 03:29:58;;;;;;;;;6.75;6.75;;;;;18.27;45.42;101263.69;4892424;29;45550;-85
2022/05/15 03:33:16;;;;;;;;;;;;;;;;;;;;;
2022/05/15 03:36:20;;;;;;;;;;;;;;;;;;;;;
2022/05/15 03:39:24;;;;;;;;;;;;;;;;;;;;;
2022/05/15 03:42:54;;;;;;;;;5.75;4.00;;;;;18.12;45.57;101254.31;4900924;29;70296;-84
2022/05/15 03:49:19;;;;;;;;;;;;;;;;;;;;;
2022/05/15 03:52:33;;;;;;;;;;;;;;;;;;;;;
2022/05/15 03:55:35;;;;;;;;;;;;;;;;;;;;;
2022/05/15 04:06:05;;;;;;;;;;;;;;;;;;;;;
2022/05/15 04:08:57;;;;;;;;;;;;;;;;;;;;;
2022/05/15 04:11:35;;;;;;;;;7.00;7.00;;;;;17.72;45.66;101246.44;4819691;29;71540;-85
2022/05/15 04:14:39;;;;;;;;;;;;;;;;;;;;;
2022/05/15 04:17:28;;;;;;;;;;;;;;;;;;;;;
2022/05/15 04:23:20;;;;;;;;;6.50;6.50;;;;;17.66;46.03;101259.94;4985793;28;45203;-84
2022/05/15 04:26:11;;;;;;;;;4.75;4.25;;;;;17.62;45.87;101241.38;5000653;28;46016;-84
2022/05/15 04:29:22;;;;;;;;;6.00;6.00;;;;;17.65;46.02;101251.06;4958969;28;45496;-85
2022/05/15 04:32:31;;;;;;;;;8.50;7.75;;;;;17.61;46.27;101242.28;4975089;28;45305;-85
2022/05/15 04:42:38;;;;;;;;;7.25;7.25;;;;;17.59;45.93;101233.47;4865702;28;45417;-85
2022/05/15 04:45:32;;;;;;;;;;;;;;;;;;;;;
2022/05/15 04:57:46;;;;;;;;;5.00;5.00;;;;;17.66;46.07;101257.28;4908854;28;45445;-85
2022/05/15 05:15:29;;;;;;;;;;;;;;;;;;;;;
2022/05/15 05:18:53;;;;;;;;;;;;;;;;;;;;;
2022/05/15 05:22:12;;;;;;;;;3.50;3.50;;;;;17.68;46.47;101253.66;4854819;29;71678;-87
2022/05/15 05:25:31;;;;;;;;;4.00;4.00;;;;;17.70;46.37;101253.63;4836043;29;45431;-88
2022/05/15 05:28:08;;;;;;;;;5.50;5.50;;;;;17.73;46.21;101259.75;4881218;29;45495;-86
2022/05/15 05:31:18;;;;;;;;;;;;;;;;;;;;;
2022/05/15 05:33:47;;;;;;;;;6.75;5.75;;;;;17.68;46.34;101252.78;4995747;28;72772;-87
2022/05/15 05:36:13;;;;;;;;;5.75;5.75;;;;;17.74;46.38;101255.28;4990256;28;45476;-87
2022/05/15 05:38:39;;;;;;;;;6.00;6.00;;;;;17.75;46.39;101254.34;4997506;28;45618;-86
2022/05/15 05:41:04;;;;;;;;;5.75;5.00;;;;;17.79;46.46;101250.75;5004453;28;47880;-84
2022/05/15 05:43:36;;;;;;;;;5.00;4.00;;;;;17.79;46.46;101256.06;5004276;28;45638;-86
2022/05/15 05:46:01;;;;;;;;;8.75;7.25;;;;;17.81;46.42;101257.78;4989782;28;45480;-86
2022/05/15 05:48:36;;;;;;;;;5.00;5.00;;;;;17.84;46.28;101252.38;4987351;28;45406;-86
2022/05/15 05:51:02;;;;;;;;;6.00;5.00;;;;;17.87;46.19;101246.09;4976505;28;47251;-85
2022/05/15 05:53:30;;;;;;;;;5.25;4.75;;;;;17.88;46.50;101233.66;4997052;28;45329;-85
2022/05/15 05:55:56;;;;;;;;;6.00;6.00;;;;;17.92;46.16;101241.53;4985180;28;45271;-86
2022/05/15 05:58:21;;;;;;;;;7.00;6.00;;;;;17.96;46.37;101247.63;4988236;28;45480;-85
2022/05/15 06:00:47;;;;;;;;;6.25;6.00;;;;;18.01;45.98;101249.25;4981182;28;46619;-86
2022/05/15 06:05:56;;;;;;;;;8.25;6.00;;;;;18.16;46.06;101264.00;5002538;28;45204;-85
2022/05/15 06:08:22;;;;;;;;;6.25;5.25;;;;;18.19;45.88;101250.56;4988168;28;45766;-86
2022/05/15 06:10:48;;;;;;;;;4.25;4.25;;;;;18.23;45.79;101252.25;5002285;28;45491;-85
2022/05/15 06:13:13;;;;;;;;;7.00;6.75;;;;;18.33;45.90;101258.19;4984434;28;45458;-86
2022/05/15 06:15:41;;;;;;;;;6.50;5.00;;;;;18.41;45.66;101256.19;5002631;28;45354;-85
2022/05/15 06:18:08;;;;;;;;;6.50;6.25;;;;;18.48;45.56;101254.22;4984398;28;45449;-86
2022/05/15 06:20:34;;;;;;;;;6.75;5.75;;;;;18.52;45.52;101251.44;5009399;28;48281;-87
2022/05/15 06:22:59;;;;;;;;;6.00;6.00;;;;;18.59;45.53;101248.59;5021591;28;45448;-86
2022/05/15 06:25:25;;;;;;;;;4.75;4.50;;;;;18.64;45.42;101246.66;5008553;28;45471;-88
2022/05/15 06:27:50;;;;;;;;;7.50;7.50;;;;;18.71;45.66;101246.44;5004055;28;45750;-88
2022/05/15 06:30:17;;;;;;;;;6.50;6.50;;;;;18.77;45.47;101250.75;5004913;28;46418;-88
2022/05/15 06:32:43;;;;;;;;;4.75;4.75;;;;;18.81;45.19;101244.41;5030506;28;45351;-88
2022/05/15 06:35:11;;;;;;;;;8.25;6.75;;;;;18.88;45.16;101247.78;5003889;28;45455;-88
2022/05/15 06:37:37;;;;;;;;;7.25;7.00;;;;;18.94;44.75;101244.91;5022021;28;45441;-88
2022/05/15 06:40:04;;;;;;;;;6.75;6.75;;;;;19.06;44.76;101248.97;5011673;28;48080;-88
2022/05/15 06:42:30;;;;;;;;;6.50;6.50;;;;;19.13;44.49;101245.22;5021537;28;45403;-89
2022/05/15 06:44:56;;;;;;;;;5.25;5.25;;;;;19.21;44.68;101242.31;5003600;28;45258;-88
2022/05/15 06:47:23;;;;;;;;;6.75;6.75;;;;;19.34;43.96;101251.66;5004339;28;45430;-89
2022/05/15 06:49:49;;;;;;;;;6.00;6.00;;;;;19.47;44.48;101257.50;5004727;28;47383;-88
2022/05/15 06:52:14;;;;;;;;;7.00;7.00;;;;;19.57;43.69;101256.28;5022261;28;45217;-87
2022/05/15 06:54:40;;;;;;;;;6.25;6.25;;;;;19.72;43.71;101263.78;5022450;28;45353;-87
2022/05/15 06:59:50;;;;;;;;;5.50;5.50;;;;;19.89;43.04;101243.66;5033344;28;45296;-87
2022/05/15 07:02:15;;;;;;;;;7.00;7.00;;;;;19.99;43.34;101237.06;5028178;28;45832;-87
2022/05/15 07:04:41;;;;;;;;;7.75;6.25;;;;;20.04;43.30;101232.44;5016959;28;45546;-86
2022/05/15 07:07:07;;;;;;;;;5.75;5.50;;;;;20.11;43.11;101225.06;5031760;28;45380;-86
2022/05/15 07:09:33;;;;;;;;;8.25;7.75;;;;;20.16;43.20;101218.63;5013985;28;47964;-88
2022/05/15 07:11:59;;;;;;;;;6.25;6.25;;;;;20.25;42.52;101228.13;5020757;28;45414;-88
2022/05/15 07:14:25;;;;;;;;;7.00;5.25;;;;;20.34;42.58;101214.44;5003505;28;45427;-87
2022/05/15 07:16:50;;;;;;;;;5.00;5.00;;;;;20.46;42.73;101218.44;5016362;28;45522;-83
2022/05/15 07:19:16;;;;;;;;;6.00;6.00;;;;;20.52;42.52;101209.31;5002844;28;47227;-84
2022/05/15 07:21:44;;;;;;;;;6.00;6.00;;;;;20.63;42.15;101209.81;5020413;28;45277;-84
2022/05/15 07:24:10;;;;;;;;;5.25;5.25;;;;;20.69;42.32;101202.44;5002851;28;45319;-84
2022/05/15 07:26:35;;;;;;;;;5.00;4.00;;;;;20.77;41.91;101201.22;5002576;28;45401;-82
2022/05/15 07:29:01;;;;;;;;;7.00;6.00;;;;;20.82;41.78;101192.13;5001929;28;46854;-83
2022/05/15 07:31:26;;;;;;;;;5.50;5.50;;;;;20.83;41.69;101191.19;5020836;28;45517;-83
2022/05/15 07:33:55;;;;;;;;;9.25;7.50;;;;;20.87;41.81;101192.78;5020886;28;45419;-85
2022/05/15 07:36:21;;;;;;;;;7.25;7.25;;;;;20.89;41.59;101193.59;5020776;28;45415;-85
2022/05/15 07:38:55;;;;;;;;;8.75;7.00;;;;;20.92;41.49;101198.84;5012541;28;46634;-85
2022/05/15 07:41:21;;;;;;;;;16.50;13.75;;;;;20.97;41.50;101192.44;4994967;28;45461;-85
2022/05/15 07:43:46;;;;;;;;;9.00;7.75;;;;;21.03;41.46;101201.09;5020503;28;45237;-85
2022/05/15 07:46:17;;;;;;;;;10.75;6.25;;;;;21.08;41.28;101193.75;5020949;28;45224;-85
2022/05/15 07:48:45;;;;;;;;;5.50;5.50;;;;;21.15;41.04;101194.38;5020533;28;45797;-84
2022/05/15 07:51:16;;;;;;;;;6.50;5.75;;;;;21.17;40.83;101191.63;5002415;28;45378;-87
2022/05/15 07:53:51;;;;;;;;;;;;;;;;;;;;;
2022/05/15 07:56:20;;;;;;;;;5.00;4.33;;;;;21.36;40.81;101180.09;5019640;28;71720;-86
2022/05/15 07:58:48;;;;;;;;;4.50;4.50;;;;;21.50;40.30;101167.97;5002077;28;48255;-86
2022/05/15 08:01:16;;;;;;;;;4.50;4.50;;;;;21.63;40.54;101166.50;5002672;28;45218;-87
2022/05/15 08:04:04;;;;;;;;;4.75;4.75;;;;;21.82;39.82;101176.44;5004216;28;45427;-84
2022/05/15 08:09:16;;;;;;;;;5.00;5.00;;;;;22.17;39.32;101166.81;5020616;28;45823;-83
2022/05/15 08:11:42;;;;;;;;;5.00;3.67;;;;;22.32;38.95;101168.84;5004670;28;45754;-84
2022/05/15 08:14:09;;;;;;;;;4.50;4.50;;;;;22.45;38.61;101153.94;5010195;28;45250;-83
2022/05/15 08:16:37;;;;;;;;;5.00;5.00;;;;;22.59;38.30;101138.97;5018587;28;45300;-83
2022/05/15 08:24:40;;;;;;;;;3.25;3.25;;;;;23.04;37.29;101126.97;5020094;28;45401;-84
2022/05/15 08:27:06;;;;;;;;;6.75;6.00;;;;;23.17;37.21;101125.41;5002431;28;45404;-83
2022/05/15 08:29:31;;;;;;;;;4.67;4.67;;;;;23.30;37.02;101121.16;5001895;28;47087;-84
2022/05/15 08:31:58;;;;;;;;;5.00;3.00;;;;;23.50;36.56;101124.66;5010057;28;45371;-83
2022/05/15 08:34:29;;;;;;;;;3.67;3.67;;;;;23.64;36.22;101121.25;5024315;28;45351;-83
2022/05/15 08:37:00;;;;;;;;;6.00;6.00;;;;;23.76;35.82;101123.31;5019792;28;45170;-84
2022/05/15 08:39:29;;;;;;;;;4.67;2.67;;;;;23.86;35.92;101121.88;5005075;28;47665;-84
2022/05/15 08:42:05;;;;;;;;;2.00;2.00;;;;;23.94;35.23;101114.25;5008006;28;45287;-84
2022/05/15 08:44:36;;;;;;;;;2.00;2.00;;;;;24.02;35.11;101113.84;5006801;28;45499;-84
2022/05/15 08:47:09;;;;;;;;;4.25;4.25;;;;;24.13;34.92;101115.97;5005108;28;45321;-84
2022/05/15 08:49:39;;;;;;;;;2.33;2.33;;;;;24.29;34.53;101106.09;5018262;28;47177;-83
2022/05/15 08:52:16;;;;;;;;;3.75;3.00;;;;;24.41;34.44;101105.41;5019731;28;45263;-84
2022/05/15 08:54:58;;;;;;;;;5.75;3.75;;;;;24.57;34.08;101101.91;5006561;28;45511;-84
2022/05/15 08:57:44;;;;;;;;;4.00;2.00;;;;;24.77;33.95;101100.75;4989262;28;45400;-84
2022/05/15 09:00:16;;;;;;;;;4.00;2.67;;;;;24.92;33.33;101099.00;5001344;28;47112;-83
2022/05/15 09:02:45;;;;;;;;;1.00;1.00;;;;;25.07;33.25;101090.91;5012037;28;45280;-83
2022/05/15 09:05:26;;;;;;;;;5.00;3.00;;;;;25.24;32.94;101083.69;5001561;28;45290;-84
2022/05/15 09:08:02;;;;;;;;;2.00;2.00;;;;;25.43;32.47;101086.13;5011178;28;46218;-83
2022/05/15 09:10:27;;;;;;;;;3.50;3.50;;;;;25.56;32.65;101088.97;4988960;28;46797;-83
2022/05/15 09:13:35;;;;;;;;;2.67;2.67;;;;;25.63;31.93;101085.75;5001451;28;45281;-83
2022/05/15 09:16:28;;;;;;;;;3.00;3.00;;;;;25.65;31.69;101083.00;5008761;28;45178;-83
2022/05/15 09:19:18;;;;;;;;;;;;;;;;;;;;;
2022/05/15 09:22:02;;;;;;;;;;;;;;;;;;;;;
2022/05/15 09:24:47;;;;;;;;;2.00;2.00;;;;;25.77;31.36;101066.06;5017922;28;72464;-83
2022/05/15 09:27:20;;;;;;;;;2.00;2.00;;;;;25.85;30.83;101066.47;5001450;28;45504;-83
2022/05/15 09:30:07;;;;;;;;;2.00;2.00;;;;;25.88;30.36;101079.78;5004873;28;45561;-83
2022/05/15 09:32:44;;;;;;;;;3.00;2.00;;;;;25.88;29.51;101078.91;5004740;28;46401;-83
2022/05/15 09:35:39;;;;;;;;;2.00;2.00;;;;;25.85;29.42;101079.06;5012000;28;45461;-83
2022/05/15 09:44:39;;;;;;;;;2.00;2.00;;;;;25.86;29.23;101057.41;5027698;28;45395;-84
2022/05/15 09:47:13;;;;;;;;;6.67;3.00;;;;;25.87;30.02;101058.28;5026990;28;45214;-84
2022/05/15 09:49:42;;;;;;;;;3.00;2.00;;;;;25.90;30.04;101063.47;5013180;28;45254;-82
2022/05/15 09:52:16;;;;;;;;;2.33;2.33;;;;;25.92;29.33;101056.16;5030154;28;45419;-83
2022/05/15 09:55:10;;;;;;;;;3.00;3.00;;;;;25.99;29.23;101049.41;5007937;28;46962;-84
2022/05/15 09:57:44;;;;;;;;;4.00;4.00;;;;;26.10;29.43;101049.59;5011346;28;45527;-84
2022/05/15 10:00:28;;;;;;;;;;;;;;;;;;;;;
2022/05/15 10:03:06;;;;;;;;;;;;;;;;;;;;;
2022/05/15 10:05:42;;;;;;;;;2.00;2.00;;;;;26.25;28.74;101044.16;5021989;28;75074;-83
2022/05/15 10:08:38;;;;;;;;;;;;;;;;;;;;;
2022/05/15 10:11:10;;;;;;;;;2.00;2.00;;;;;26.24;28.17;101032.50;5021582;28;67955;-84
2022/05/15 10:14:02;;;;;;;;;;;;;;;;;;;;;
2022/05/15 10:16:37;;;;;;;;;3.00;1.33;;;;;26.24;28.04;101029.81;5020672;28;74306;-83
2022/05/15 10:19:24;;;;;;;;;2.33;2.33;;;;;26.28;28.05;101019.69;5011631;28;45329;-83
2022/05/15 10:22:29;;;;;;;;;4.00;2.00;;;;;26.39;28.07;101023.41;4991653;28;45283;-83
2022/05/15 10:25:04;;;;;;;;;4.50;4.50;;;;;26.43;28.06;101015.97;5014225;28;45325;-84
2022/05/15 10:27:44;;;;;;;;;;;;;;;;;;;;;
2022/05/15 10:30:26;;;;;;;;;2.33;2.33;;;;;26.53;27.88;101008.16;5004641;28;72408;-83
2022/05/15 10:33:19;;;;;;;;;2.33;2.33;;;;;26.57;28.02;101004.28;5004037;28;45606;-84
2022/05/15 10:35:56;;;;;;;;;4.50;3.25;;;;;26.63;27.89;100998.47;5021185;28;45443;-83
2022/05/15 10:38:48;;;;;;;;;3.00;2.67;;;;;26.76;27.77;101007.50;5003485;28;47222;-82
2022/05/15 10:42:10;;;;;;;;;4.00;3.00;;;;;26.96;27.55;100994.47;5008354;28;45219;-83
2022/05/15 10:45:10;;;;;;;;;;;;;;;;;;;;;
2022/05/15 10:47:47;;;;;;;;;4.00;4.00;;;;;27.24;26.59;101005.13;5024302;28;73085;-77
2022/05/15 10:50:43;;;;;;;;;3.00;3.00;;;;;27.32;26.43;100995.59;5022111;28;45544;-79
2022/05/15 10:59:48;;;;;;;;;5.00;3.00;;;;;27.80;27.18;100991.31;5012018;28;45520;-81
2022/05/15 11:02:33;;;;;;;;;4.25;4.25;;;;;27.95;26.94;100985.75;5005062;28;48362;-77
2022/05/15 11:05:07;;;;;;;;;62.75;51.00;;;;;28.10;26.83;100981.94;5020644;28;45343;-79
2022/05/15 11:07:56;;;;;;;;;97.25;92.00;;;;;28.27;27.54;100980.66;5004189;28;45369;-79
2022/05/15 11:10:30;;;;;;;;;5.50;5.50;;;;;28.45;27.03;100970.34;5034561;28;45498;-80
2022/05/15 11:13:16;;;;;;;;;5.75;5.50;;;;;28.65;26.73;100966.97;5018903;28;45519;-80
2022/05/15 11:16:10;;;;;;;;;5.00;4.50;;;;;28.88;26.21;100976.06;5020910;28;45311;-80
2022/05/15 11:18:39;;;;;;;;;5.75;5.75;;;;;28.99;25.78;100954.38;4991164;28;45519;-80
2022/05/15 11:21:12;;;;;;;;;18.50;17.75;;;;;29.02;25.59;100965.00;5020488;28;45253;-80
2022/05/15 11:23:50;;;;;;;;;5.50;5.00;;;;;29.03;25.18;100957.75;5019832;28;47034;-81
2022/05/15 11:26:35;;;;;;;;;16.00;13.50;;;;;29.01;25.44;100957.00;5003230;28;45315;-79
2022/05/15 11:29:10;;;;;;;;;4.00;4.00;;;;;29.10;25.19;100964.44;5020734;28;45613;-80
2022/05/15 11:31:42;;;;;;;;;5.00;5.00;;;;;29.14;24.85;100967.78;5019354;28;45246;-80
2022/05/15 11:34:09;;;;;;;;;4.25;4.00;;;;;29.18;24.42;100955.69;5020265;28;45535;-80
2022/05/15 11:36:38;;;;;;;;;4.00;4.00;;;;;29.23;24.58;100967.03;5014048;28;45258;-81
2022/05/15 11:39:15;;;;;;;;;3.00;2.00;;;;;29.22;24.59;100952.63;5020466;28;45427;-79
2022/05/15 11:41:44;;;;;;;;;3.33;3.33;;;;;29.28;24.72;100950.41;5002687;28;45495;-81
2022/05/15 11:44:18;;;;;;;;;2.67;2.67;;;;;29.35;24.13;100947.09;5002298;28;46758;-79
2022/05/15 11:46:47;;;;;;;;;2.67;2.67;;;;;29.42;24.32;100945.59;5002389;28;45374;-81
2022/05/15 11:49:32;;;;;;;;;3.00;3.00;;;;;29.46;23.92;100938.97;4990225;28;45495;-81
2022/05/15 11:52:35;;;;;;;;;2.67;2.67;;;;;29.57;24.48;100935.38;5020004;28;45546;-79
2022/05/15 11:55:35;;;;;;;;;5.00;3.33;;;;;29.64;24.53;100943.91;5012060;28;47686;-77
2022/05/15 11:58:23;;;;;;;;;4.33;4.33;;;;;29.72;23.72;100943.28;5008267;28;46278;-85
2022/05/15 12:01:35;;;;;;;;;2.00;2.00;;;;;29.77;23.41;100944.63;4993856;28;45266;-86
2022/05/15 12:08:09;;;;;;;;;;;;;;;;;;;;;
2022/05/15 12:10:37;;;;;;;;;3.33;3.33;;;;;30.07;22.82;100932.25;4902610;28;72066;-81
2022/05/15 12:14:41;;;;;;;;;2.33;2.33;;;;;30.17;23.04;100929.63;5013614;28;45978;-83
2022/05/15 12:17:34;;;;;;;;;;;;;;;;;;;;;
2022/05/15 12:20:47;;;;;;;;;;;;;;;;;;;;;
2022/05/15 12:31:00;;;;;;;;;3.00;3.00;;;;;30.58;22.21;100925.31;4777421;29;45490;-83
2022/05/15 12:34:20;;;;;;;;;3.00;3.00;;;;;30.75;21.32;100924.75;4867687;29;46977;-82
2022/05/15 12:36:55;;;;;;;;;2.67;2.67;;;;;30.65;21.41;100918.34;4917165;28;45472;-81
2022/05/15 12:39:26;;;;;;;;;1.67;1.67;;;;;30.59;21.77;100919.75;4903983;28;46322;-82
2022/05/15 12:41:52;;;;;;;;;3.00;3.00;;;;;30.49;21.60;100911.50;4979066;28;45679;-82
2022/05/15 12:44:39;;;;;;;;;2.67;2.67;;;;;30.33;21.44;100916.53;4980667;28;46826;-82
2022/05/15 12:47:19;;;;;;;;;2.33;1.67;;;;;30.16;21.76;100906.19;4999342;28;45306;-82
2022/05/15 12:49:45;;;;;;;;;2.00;2.00;;;;;30.04;21.56;100911.63;4999543;28;45392;-82
2022/05/15 12:52:36;;;;;;;;;3.33;3.00;;;;;29.94;21.81;100899.84;4981662;28;45432;-82
2022/05/15 12:55:23;;;;;;;;;3.67;2.00;;;;;29.87;21.72;100898.63;4968057;28;46860;-81
2022/05/15 12:57:53;;;;;;;;;0.00;0.00;;;;;29.79;21.95;100890.25;4999094;28;45339;-81
2022/05/15 13:00:25;;;;;;;;;3.00;3.00;;;;;29.74;22.48;100895.19;4981732;28;45399;-81
2022/05/15 13:03:00;;;;;;;;;2.00;2.00;;;;;29.71;22.00;100885.44;4982216;28;45554;-81
2022/05/15 13:05:33;;;;;;;;;5.00;4.00;;;;;29.68;22.24;100893.84;4985028;28;47545;-81
2022/05/15 13:08:03;;;;;;;;;1.33;1.33;;;;;29.72;22.51;100895.28;5002965;28;45424;-80
2022/05/15 14:51:34;;;;;;;;;3.00;3.00;;;;;31.37;23.51;100767.91;6342247;22;45678;-82
2022/05/15 14:54:56;;;;;;;;;;;;;;;;;;;;;
2022/05/15 16:26:24;;;;;;;;;3.00;2.67;;;;;33.21;22.21;100659.56;5981286;23;45402;-81
2022/05/15 16:39:27;;;;;;;;;3.00;2.00;;;;;33.21;22.04;100646.75;6026340;23;45597;-81
2022/05/15 17:12:37;;;;;;;;;3.00;3.00;;;;;39.75;17.35;100596.09;6322124;22;45365;-81
2022/05/15 17:15:06;;;;;;;;;2.67;2.67;;;;;39.87;17.07;100589.00;6314984;22;45355;-80
2022/05/15 17:17:33;;;;;;;;;2.25;2.25;;;;;39.55;16.85;100595.09;6288939;22;45410;-81
2022/05/15 17:20:28;;;;;;;;;2.00;2.00;;;;;38.83;17.41;100591.34;6288868;22;44985;-82
2022/05/15 17:23:09;;;;;;;;;6.25;3.00;;;;;38.04;17.52;100583.78;6294723;22;45873;-83
2022/05/15 17:35:38;;;;;;;;;3.00;3.00;;;;;35.03;19.30;100560.25;6191928;23;45186;-80
2022/05/15 17:41:50;;;;;;;;;;;;;;;;;;;;;
2022/05/15 17:44:43;;;;;;;;;3.00;3.00;;;;;32.75;21.36;100618.63;6192333;23;45758;-79
2022/05/15 17:47:27;;;;;;;;;5.25;5.25;;;;;32.21;21.64;100609.38;6281324;22;45992;-79
2022/05/15 17:50:01;;;;;;;;;3.00;1.67;;;;;31.74;21.88;100618.38;6290706;22;48000;-79
2022/05/15 17:52:30;;;;;;;;;3.67;3.67;;;;;31.26;22.81;100615.66;6283975;22;46176;-78
2022/05/15 17:54:55;;;;;;;;;3.00;3.00;;;;;30.88;23.11;100612.75;6283040;22;45503;-77
2022/05/15 17:57:21;;;;;;;;;3.67;3.00;;;;;30.57;23.53;100606.47;6308219;22;45252;-79
2022/05/15 17:59:46;;;;;;;;;2.33;2.33;;;;;30.29;24.14;100594.53;6308662;22;45552;-79
2022/05/15 18:02:12;;;;;;;;;4.33;4.00;;;;;30.04;24.60;100595.78;6280218;22;45310;-78
2022/05/15 18:04:38;;;;;;;;;4.00;4.00;;;;;29.87;25.06;100600.00;6278906;22;45231;-78
2022/05/15 18:07:04;;;;;;;;;5.25;4.00;;;;;29.70;25.32;100609.63;6279535;22;45564;-79
2022/05/15 18:09:31;;;;;;;;;4.33;4.33;;;;;29.57;25.59;100614.34;6279602;22;46026;-79
2022/05/15 18:11:58;;;;;;;;;6.00;4.33;;;;;29.46;25.79;100618.84;6305424;22;45368;-79
2022/05/15 18:14:23;;;;;;;;;4.00;3.00;;;;;29.39;26.04;100617.63;6308021;22;45298;-78
2022/05/15 18:16:52;;;;;;;;;3.00;2.67;;;;;29.33;26.42;100617.31;6279513;22;45196;-80
2022/05/15 18:19:21;;;;;;;;;3.67;3.67;;;;;29.24;26.36;100629.75;6305952;22;47968;-81
2022/05/15 18:21:46;;;;;;;;;4.00;4.00;;;;;29.14;26.35;100636.97;6307124;22;45395;-79
2022/05/15 18:24:13;;;;;;;;;6.00;3.67;;;;;29.02;27.12;100652.34;6279392;22;45419;-79
2022/05/15 18:27:11;;;;;;;;;4.50;4.00;;;;;28.88;26.68;100666.19;6279958;22;45149;-78
2022/05/15 18:29:37;;;;;;;;;3.00;3.00;;;;;28.81;27.08;100682.09;6257327;22;47513;-79
2022/05/15 18:32:03;;;;;;;;;3.00;3.00;;;;;28.73;27.27;100692.69;6309149;22;45342;-78
2022/05/15 18:34:28;;;;;;;;;4.00;4.00;;;;;28.68;26.99;100727.41;6280760;22;45388;-78
2022/05/15 18:36:54;;;;;;;;;4.67;4.00;;;;;28.65;27.49;100741.22;6281078;22;45385;-78
2022/05/15 18:39:23;;;;;;;;;5.33;5.33;;;;;28.61;28.13;100756.88;6281317;22;46918;-78
2022/05/15 18:41:59;;;;;;;;;4.00;3.33;;;;;28.52;31.56;100793.69;6307115;22;45796;-78
2022/05/15 18:44:27;;;;;;;;;5.00;5.00;;;;;28.15;35.09;100825.41;6280275;22;45366;-78
2022/05/15 18:46:53;;;;;;;;;6.00;5.33;;;;;27.71;35.36;100835.00;6303328;22;45767;-78
2022/05/15 18:49:18;;;;;;;;;6.00;5.33;;;;;27.35;36.46;100842.16;6308861;22;45452;-79
2022/05/15 18:57:13;;;;;;;;;2.00;2.00;;;;;26.32;38.83;100870.03;6311776;22;45423;-78
2022/05/15 18:59:39;;;;;;;;;4.00;4.00;;;;;26.12;39.53;100884.88;6286761;22;46996;-78
2022/05/15 19:02:04;;;;;;;;;9.25;6.00;;;;;25.88;39.83;100893.63;6314111;22;45556;-78
2022/05/15 19:04:30;;;;;;;;;6.33;4.00;;;;;25.69;40.97;100893.06;6315383;22;45385;-78
2022/05/15 19:06:55;;;;;;;;;5.00;5.00;;;;;25.52;41.84;100899.53;6286094;22;45394;-78
2022/05/15 19:09:21;;;;;;;;;4.00;4.00;;;;;25.39;42.79;100898.56;6313079;22;45752;-78
2022/05/15 19:11:47;;;;;;;;;5.00;4.00;;;;;25.27;43.30;100886.75;6311595;22;45441;-77
2022/05/15 19:14:12;;;;;;;;;5.25;4.00;;;;;25.17;42.86;100877.50;6312464;22;45448;-77
2022/05/15 19:16:39;;;;;;;;;8.33;7.00;;;;;25.07;43.56;100886.13;6278560;22;45578;-78
2022/05/15 19:19:05;;;;;;;;;5.25;5.25;;;;;25.01;43.83;100880.25;6281728;22;47084;-78
2022/05/15 19:21:30;;;;;;;;;6.00;6.00;;;;;24.95;44.62;100894.97;6280299;22;45385;-78
2022/05/15 19:23:57;;;;;;;;;7.33;5.00;;;;;24.92;45.47;100883.53;6277426;22;45398;-78
2022/05/15 19:26:22;;;;;;;;;8.00;7.50;;;;;24.81;46.66;100866.19;6305598;22;45773;-77
2022/05/15 19:28:48;;;;;;;;;7.50;7.00;;;;;24.71;47.12;100875.78;6278255;22;47284;-78
2022/05/15 19:31:15;;;;;;;;;7.00;7.00;;;;;24.64;48.34;100871.72;6278111;22;45430;-78
2022/05/15 19:33:41;;;;;;;;;6.25;5.25;;;;;24.55;48.77;100862.38;6303838;22;45548;-78
2022/05/15 19:36:10;;;;;;;;;13.00;12.25;;;;;24.48;49.28;100865.53;6309613;22;45671;-77
2022/05/15 19:38:37;;;;;;;;;10.25;10.25;;;;;24.37;49.98;100855.38;6315418;22;45382;-78
2022/05/15 19:41:06;;;;;;;;;9.25;9.25;;;;;24.21;50.14;100833.91;6287961;22;45390;-77
2022/05/15 19:43:33;;;;;;;;;9.00;8.00;;;;;24.06;51.55;100811.47;6261825;22;45518;-78
2022/05/15 19:45:59;;;;;;;;;9.00;8.50;;;;;23.96;51.22;100799.53;6282716;22;45651;-78
2022/05/15 19:48:26;;;;;;;;;12.25;11.50;;;;;23.85;52.02;100800.16;6282804;22;47122;-78
2022/05/15 19:50:53;;;;;;;;;13.50;8.75;;;;;23.76;52.67;100817.69;6288252;22;44707;-79
2022/05/15 19:53:19;;;;;;;;;8.00;7.00;;;;;23.73;52.24;100857.31;6313679;22;45356;-78
2022/05/15 19:55:47;;;;;;;;;8.50;7.50;;;;;23.69;52.53;100863.78;6290079;22;45409;-78
2022/05/15 19:58:13;;;;;;;;;9.00;8.75;;;;;23.65;52.95;100872.97;6286183;22;47532;-78
2022/05/15 20:00:44;;;;;;;;;9.00;7.75;;;;;23.58;53.49;100880.53;6309502;22;45595;-78
2022/05/15 20:03:11;;;;;;;;;11.25;7.50;;;;;23.54;53.73;100887.00;6311734;22;45361;-77
2022/05/15 20:13:50;;;;;;;;;7.00;7.00;;;;;23.29;55.36;100895.56;6310355;22;45434;-77
2022/05/15 20:16:16;;;;;;;;;11.50;9.75;;;;;23.24;55.92;100908.38;6281751;22;45768;-78
2022/05/15 20:18:51;;;;;;;;;11.75;7.25;;;;;23.18;55.88;100906.88;6306799;22;45472;-77
2022/05/15 20:21:16;;;;;;;;;9.25;8.50;;;;;23.13;55.96;100910.78;6279107;22;45408;-77
2022/05/15 20:23:42;;;;;;;;;8.00;8.00;;;;;23.08;56.09;100909.19;6278844;22;45390;-77
2022/05/15 20:26:16;;;;;;;;;7.25;7.00;;;;;23.03;56.49;100911.25;6308709;22;45500;-76
2022/05/15 20:28:42;;;;;;;;;8.50;7.00;;;;;23.01;56.91;100912.28;6311845;22;45638;-77
2022/05/15 20:31:13;;;;;;;;;10.75;8.75;;;;;23.00;56.73;100899.81;6309047;22;45361;-77
2022/05/15 20:33:40;;;;;;;;;7.00;7.00;;;;;22.99;56.17;100880.16;6280329;22;45473;-77
2022/05/15 20:36:09;;;;;;;;;9.00;8.50;;;;;22.96;56.46;100884.75;6311692;22;45452;-76
2022/05/15 20:38:35;;;;;;;;;10.50;8.25;;;;;22.91;56.71;100906.50;6312431;22;45360;-78
2022/05/15 20:41:04;;;;;;;;;8.25;6.75;;;;;22.94;56.77;100914.41;6281949;22;45369;-78
2022/05/15 20:43:30;;;;;;;;;7.00;7.00;;;;;22.95;56.96;100920.63;6282859;22;44800;-78
2022/05/15 20:45:58;;;;;;;;;9.25;7.50;;;;;22.94;56.57;100918.91;6316584;22;45546;-79
2022/05/15 20:48:24;;;;;;;;;9.25;9.25;;;;;22.96;56.96;100930.41;6317115;22;45596;-78
2022/05/15 20:50:49;;;;;;;;;10.50;8.00;;;;;22.96;56.19;100942.09;6287331;22;45574;-78